Valley Mills, Texas
Current Conditions -  °F | °C
As of 12:15 PM on Saturday 25 Oct 2014 (Local Time) from KPWG Reporting Station
Clear Clear  
Wind Chill: 82°   Ceiling: Unl
Heat Index: 82°   Visibility: 10mi
Dew Point: 59°   Wind: 12mph
Humidity: 45%   Direction: 230°SW
Pressure: 30.17"   Gusts: NA
Location:  31.66°N, 97.47°W
Report Text: KPWG 251715Z AUTO 23010KT 10SM CLR 28/15 A3017 RMK AO1
Loading
Personal Weather Stations






























Interactive Weather Map
Tropical Storm Tracking
New forecast layout! Learn more

10-Day Weather Forecast

Advertisements
Track Severe Weather on mobile